Terminal Aerodrome Forecast
Issued by NWS

Home | Current Version | Previous Version | Text Only | Print | Product List | Glossary On
Versions: 1 2 3 4 5 6 7 8 9 10 11 12 13
063
FTUS45 KTFX 042320
TAFCTB
TAF
KCTB 042320Z 0500/0524 26012G22KT P6SM SCT150
     FM050600 28011KT P6SM BKN120
     FM051400 32015KT P6SM VCSH SCT050 OVC080
     FM052000 35015KT P6SM VCSH SCT050 BKN080 PROB30 0521/0524 -TSRA
      BKN050CB=

USA.gov is the U.S. government's official web portal to all federal, state and local government web resources and services.